createdAt,value
2022-08-26T00:02:12.764Z,28.96
2022-08-26T00:04:40.640Z,29.22
2022-08-26T00:07:09.039Z,29.24
2022-08-26T00:09:38.896Z,29.24
2022-08-26T00:12:07.121Z,28.97
2022-08-26T00:14:36.866Z,29.25
2022-08-26T00:17:04.747Z,29.07
2022-08-26T00:19:33.145Z,29.27
2022-08-26T00:22:01.006Z,29.29
2022-08-26T00:24:28.672Z,29.03
2022-08-26T00:26:56.466Z,29.30
2022-08-26T00:29:24.223Z,28.90
2022-08-26T00:31:52.000Z,29.32
2022-08-26T00:34:19.824Z,28.88
2022-08-26T00:36:49.385Z,29.19
2022-08-26T00:39:20.416Z,29.18
2022-08-26T00:41:48.829Z,29.09
2022-08-26T00:44:17.549Z,28.93
2022-08-26T00:46:49.199Z,29.31
2022-08-26T00:49:41.693Z,29.15
2022-08-26T00:52:15.389Z,28.90
2022-08-26T00:55:01.951Z,29.02
2022-08-26T00:57:32.426Z,29.29
2022-08-26T01:00:02.133Z,29.10
2022-08-26T01:02:31.422Z,28.84
2022-08-26T01:05:06.908Z,29.28
2022-08-26T01:07:36.096Z,29.01
2022-08-26T01:10:08.324Z,28.98
2022-08-26T01:12:48.961Z,28.84
2022-08-26T01:15:22.088Z,29.25
2022-08-26T01:17:52.414Z,28.84
2022-08-26T01:20:52.174Z,29.03
2022-08-26T01:23:29.085Z,29.02
2022-08-26T01:26:00.902Z,28.70
2022-08-26T01:28:34.162Z,29.22
2022-08-26T01:31:04.554Z,29.21
2022-08-26T01:33:43.653Z,28.87
2022-08-26T01:36:12.881Z,29.19
2022-08-26T01:38:41.163Z,28.94
2022-08-26T01:41:16.317Z,29.00
2022-08-26T01:43:53.679Z,29.18
2022-08-26T01:46:23.200Z,29.00
2022-08-26T01:48:54.542Z,29.20
2022-08-26T01:51:25.602Z,29.03
2022-08-26T01:53:53.848Z,29.11
2022-08-26T01:56:23.720Z,29.21
2022-08-26T01:58:58.202Z,29.13
2022-08-26T02:01:29.102Z,29.20
2022-08-26T02:04:16.783Z,29.20
2022-08-26T02:06:45.301Z,28.82
2022-08-26T02:09:13.728Z,28.47
2022-08-26T02:11:42.843Z,29.05
2022-08-26T02:14:33.340Z,28.80
2022-08-26T02:17:04.076Z,29.02
2022-08-26T02:19:39.972Z,28.64
2022-08-26T02:22:16.897Z,29.11
2022-08-26T02:25:12.597Z,28.41
2022-08-26T02:27:40.263Z,29.09
2022-08-26T02:30:12.112Z,29.09
2022-08-26T02:32:41.368Z,28.85
2022-08-26T02:35:11.543Z,28.55
2022-08-26T02:37:39.772Z,29.09
2022-08-26T02:40:11.959Z,29.09
2022-08-26T02:42:40.185Z,28.52
2022-08-26T02:45:11.051Z,29.11
2022-08-26T02:47:39.426Z,29.13
2022-08-26T02:50:07.543Z,29.14
2022-08-26T02:52:35.754Z,29.03
2022-08-26T02:55:05.681Z,28.77
2022-08-26T02:57:33.446Z,29.02
2022-08-26T03:00:02.011Z,29.00
2022-08-26T03:02:30.592Z,28.56
2022-08-26T03:05:01.996Z,28.93
2022-08-26T03:07:31.335Z,28.78
2022-08-26T03:09:59.278Z,28.66
2022-08-26T03:12:26.925Z,29.11
2022-08-26T03:14:54.645Z,28.88
2022-08-26T03:17:22.779Z,28.66
2022-08-26T03:19:57.135Z,28.67
2022-08-26T03:22:26.188Z,29.11
2022-08-26T03:24:54.879Z,28.79
2022-08-26T03:27:22.550Z,28.91
2022-08-26T03:30:08.863Z,28.92
2022-08-26T03:32:39.841Z,29.10
2022-08-26T03:35:09.633Z,29.10
2022-08-26T03:37:37.958Z,28.60
2022-08-26T03:40:09.328Z,29.09
2022-08-26T03:42:39.183Z,28.67
2022-08-26T03:45:09.335Z,29.09
2022-08-26T03:47:37.011Z,29.09
2022-08-26T03:50:11.137Z,29.09
2022-08-26T03:52:43.537Z,28.96
2022-08-26T03:55:12.174Z,28.51
2022-08-26T03:57:40.129Z,28.39
2022-08-26T04:00:18.403Z,28.64
2022-08-26T04:02:48.898Z,28.19
2022-08-26T04:05:18.498Z,29.08
2022-08-26T04:07:47.293Z,29.08
2022-08-26T04:10:20.135Z,29.08
2022-08-26T04:12:48.484Z,28.94
2022-08-26T04:15:17.802Z,29.05
2022-08-26T04:17:45.947Z,28.93
2022-08-26T04:20:16.210Z,28.93
2022-08-26T04:22:45.758Z,29.03
2022-08-26T04:25:14.193Z,29.03
2022-08-26T04:27:42.052Z,29.03
2022-08-26T04:30:10.527Z,28.92
2022-08-26T04:32:38.710Z,28.54
2022-08-26T04:35:07.177Z,28.92
2022-08-26T04:37:36.852Z,28.60
2022-08-26T04:40:06.541Z,29.03
2022-08-26T04:42:34.413Z,28.96
2022-08-26T04:45:05.778Z,28.90
2022-08-26T04:47:37.467Z,28.78
2022-08-26T04:50:07.352Z,28.54
2022-08-26T04:52:36.900Z,29.05
2022-08-26T04:55:06.559Z,29.05
2022-08-26T04:57:36.624Z,28.46
2022-08-26T05:00:07.083Z,29.04
2022-08-26T05:02:34.882Z,28.79
2022-08-26T05:05:03.074Z,28.74
2022-08-26T05:07:31.483Z,28.59
2022-08-26T05:09:59.550Z,28.76
2022-08-26T05:12:29.117Z,28.68
2022-08-26T05:14:57.222Z,29.04
2022-08-26T05:17:25.175Z,29.03
2022-08-26T05:19:52.929Z,29.03
2022-08-26T05:22:20.736Z,28.84
2022-08-26T05:24:48.584Z,29.03
2022-08-26T05:27:16.421Z,28.89
2022-08-26T05:29:45.377Z,28.54
2022-08-26T05:32:13.916Z,29.03
2022-08-26T05:34:42.992Z,28.61
2022-08-26T05:37:10.865Z,29.03
2022-08-26T05:39:41.385Z,28.75
2022-08-26T05:42:11.423Z,28.73
2022-08-26T05:44:54.020Z,29.02
2022-08-26T05:47:25.522Z,29.02
2022-08-26T05:49:53.282Z,28.72
2022-08-26T05:52:21.165Z,28.45
2022-08-26T05:54:52.498Z,29.01
2022-08-26T05:57:20.084Z,29.03
2022-08-26T05:59:51.725Z,29.05
2022-08-26T06:02:20.439Z,28.84
2022-08-26T06:04:48.215Z,28.92
2022-08-26T06:07:17.030Z,28.82
2022-08-26T06:09:46.182Z,28.64
2022-08-26T06:12:13.791Z,29.06
2022-08-26T06:14:42.943Z,28.96
2022-08-26T06:17:10.593Z,28.45
2022-08-26T06:19:38.366Z,28.88
2022-08-26T06:22:29.122Z,28.88
2022-08-26T06:25:15.493Z,28.54
2022-08-26T06:27:43.283Z,28.94
2022-08-26T06:30:11.877Z,28.88
2022-08-26T06:32:40.310Z,29.09
2022-08-26T06:35:12.127Z,29.07
2022-08-26T06:37:41.178Z,29.08
2022-08-26T06:40:11.385Z,28.99
2022-08-26T06:42:40.927Z,29.07
2022-08-26T06:45:09.081Z,28.62
2022-08-26T06:47:36.836Z,28.83
2022-08-26T06:50:05.846Z,28.87
2022-08-26T06:52:33.979Z,29.07
2022-08-26T06:55:02.648Z,29.06
2022-08-26T06:57:32.974Z,28.68
2022-08-26T07:00:13.209Z,29.01
2022-08-26T07:02:41.784Z,28.76
2022-08-26T07:05:15.116Z,28.74
2022-08-26T07:07:42.646Z,28.72
2022-08-26T07:10:11.102Z,28.59
2022-08-26T07:12:39.008Z,29.00
2022-08-26T07:15:07.207Z,28.59
2022-08-26T07:17:35.943Z,29.01
2022-08-26T07:20:07.675Z,28.94
2022-08-26T07:22:37.220Z,29.02
2022-08-26T07:25:07.640Z,28.62
2022-08-26T07:27:36.925Z,29.03
2022-08-26T07:30:06.697Z,29.02
2022-08-26T07:32:34.549Z,28.59
2022-08-26T07:35:02.188Z,28.62
2022-08-26T07:37:30.540Z,28.40
2022-08-26T07:40:03.771Z,28.69
2022-08-26T07:42:31.472Z,28.91
2022-08-26T07:44:59.647Z,29.02
2022-08-26T07:47:27.359Z,28.58
2022-08-26T07:49:57.580Z,29.06
2022-08-26T07:52:27.666Z,28.94
2022-08-26T07:55:00.974Z,29.06
2022-08-26T07:57:29.458Z,28.84
2022-08-26T07:59:57.741Z,28.63
2022-08-26T08:02:28.533Z,28.96
2022-08-26T08:04:58.212Z,28.68
2022-08-26T08:07:44.317Z,29.11
2022-08-26T08:10:18.706Z,28.66
2022-08-26T08:12:49.752Z,29.14
2022-08-26T08:15:21.384Z,29.14
2022-08-26T08:17:50.500Z,28.84
2022-08-26T08:20:20.118Z,28.88
2022-08-26T08:22:48.139Z,28.99
2022-08-26T08:25:16.269Z,29.19
2022-08-26T08:27:48.699Z,29.04
2022-08-26T08:30:22.902Z,29.22
2022-08-26T08:32:52.461Z,29.21
2022-08-26T08:35:24.148Z,28.68
2022-08-26T08:37:54.864Z,29.25
2022-08-26T08:40:25.392Z,29.07
2022-08-26T08:42:58.977Z,29.28
2022-08-26T08:45:37.246Z,28.85
2022-08-26T08:49:02.357Z,29.06
2022-08-26T08:51:35.862Z,29.36
2022-08-26T08:54:04.858Z,29.39
2022-08-26T08:56:39.383Z,29.20
2022-08-26T08:59:18.877Z,29.37
2022-08-26T09:02:12.963Z,29.40
2022-08-26T09:05:02.862Z,29.42
2022-08-26T09:07:41.869Z,29.32
2022-08-26T09:10:41.727Z,29.45
2022-08-26T09:13:16.886Z,29.40
2022-08-26T09:15:47.189Z,29.49
2022-08-26T09:18:34.194Z,29.46
2022-08-26T09:21:03.981Z,29.53
2022-08-26T09:23:34.074Z,29.39
2022-08-26T09:26:16.224Z,29.12
2022-08-26T09:29:02.531Z,29.62
2022-08-26T09:31:35.358Z,29.44
2022-08-26T09:34:09.525Z,29.29
2022-08-26T09:36:58.369Z,29.61
2022-08-26T09:39:33.312Z,29.74
2022-08-26T09:42:09.893Z,29.77
2022-08-26T09:44:54.992Z,29.78
2022-08-26T09:47:38.309Z,29.77
2022-08-26T09:50:28.766Z,29.42
2022-08-26T09:53:12.782Z,29.81
2022-08-26T09:55:43.943Z,29.55
2022-08-26T09:58:35.600Z,29.86
2022-08-26T10:01:07.976Z,29.88
2022-08-26T10:03:38.267Z,29.36
2022-08-26T10:06:13.450Z,29.31
2022-08-26T10:08:47.586Z,29.84
2022-08-26T10:11:27.404Z,29.97
2022-08-26T10:14:00.768Z,29.98
2022-08-26T10:16:45.616Z,29.95
2022-08-26T10:19:20.047Z,29.54
2022-08-26T10:21:48.215Z,30.02
2022-08-26T10:24:25.456Z,29.76
2022-08-26T10:26:55.964Z,30.08
2022-08-26T10:29:36.340Z,30.12
2022-08-26T10:32:20.784Z,29.69
2022-08-26T10:34:48.601Z,30.05
2022-08-26T10:37:23.957Z,30.18
2022-08-26T10:40:05.950Z,30.22
2022-08-26T10:42:46.367Z,30.25
2022-08-26T10:45:15.588Z,30.28
2022-08-26T10:48:01.620Z,29.99
2022-08-26T10:50:35.823Z,30.13
2022-08-26T10:53:25.113Z,30.10
2022-08-26T10:56:18.950Z,30.48
2022-08-26T10:58:56.183Z,30.51
2022-08-26T11:01:51.066Z,30.35
2022-08-26T11:04:47.702Z,30.59
2022-08-26T11:07:39.169Z,30.61
2022-08-26T11:10:42.239Z,30.62
2022-08-26T11:13:10.529Z,29.80
2022-08-26T11:15:38.666Z,30.69
2022-08-26T11:18:27.486Z,30.60
2022-08-26T11:20:55.137Z,30.69
2022-08-26T11:23:22.727Z,30.81
2022-08-26T11:26:01.911Z,30.66
2022-08-26T11:28:35.997Z,30.89
2022-08-26T11:31:08.795Z,30.56
2022-08-26T11:33:56.884Z,30.57
2022-08-26T11:36:39.653Z,30.92
2022-08-26T11:39:24.746Z,31.02
2022-08-26T11:41:55.628Z,31.06
2022-08-26T11:44:35.756Z,30.97
2022-08-26T11:47:03.567Z,30.67
2022-08-26T11:49:33.421Z,31.11
2022-08-26T11:52:20.798Z,31.13
2022-08-26T11:55:18.128Z,31.07
2022-08-26T11:57:54.997Z,30.91
2022-08-26T12:00:50.894Z,31.13
2022-08-26T12:03:36.050Z,30.86
2022-08-26T12:06:10.311Z,30.83
2022-08-26T12:08:44.239Z,31.12
2022-08-26T12:11:41.446Z,31.01
2022-08-26T12:14:19.893Z,31.12
2022-08-26T12:16:48.016Z,30.61
2022-08-26T12:19:27.728Z,31.10
2022-08-26T12:22:01.656Z,31.10
2022-08-26T12:24:29.941Z,31.09
2022-08-26T12:27:17.266Z,31.11
2022-08-26T12:29:48.520Z,30.64
2022-08-26T12:32:19.431Z,31.10
2022-08-26T12:34:49.119Z,30.98
2022-08-26T12:37:18.875Z,30.85
2022-08-26T12:39:49.123Z,30.64
2022-08-26T12:42:22.733Z,31.12
2022-08-26T12:44:58.736Z,31.13
2022-08-26T12:47:43.946Z,31.14
2022-08-26T12:50:23.805Z,31.13
2022-08-26T12:53:03.748Z,31.15
2022-08-26T12:56:05.697Z,31.17
2022-08-26T12:58:35.903Z,31.19
2022-08-26T13:01:06.872Z,31.19
2022-08-26T13:03:38.515Z,31.19
2022-08-26T13:06:16.467Z,31.21
2022-08-26T13:08:54.394Z,31.24
2022-08-26T13:11:24.749Z,31.27
2022-08-26T13:14:07.171Z,31.27
2022-08-26T13:16:36.461Z,31.12
2022-08-26T13:19:10.613Z,31.02
2022-08-26T13:21:50.870Z,31.33
2022-08-26T13:24:26.090Z,31.29
2022-08-26T13:26:54.060Z,31.34
2022-08-26T13:29:21.767Z,31.35
2022-08-26T13:31:50.650Z,30.63
2022-08-26T13:34:21.110Z,31.39
2022-08-26T13:36:51.409Z,31.34
2022-08-26T13:39:20.576Z,31.01
2022-08-26T13:41:48.566Z,31.43
2022-08-26T13:44:18.694Z,31.33
2022-08-26T13:46:46.449Z,31.08
2022-08-26T13:49:14.162Z,31.09
2022-08-26T13:51:42.127Z,31.21
2022-08-26T13:54:09.858Z,31.09
2022-08-26T13:56:37.678Z,31.24
2022-08-26T13:59:06.390Z,31.37
2022-08-26T14:01:38.036Z,30.63
2022-08-26T14:04:06.189Z,31.36
2022-08-26T14:06:34.166Z,30.91
2022-08-26T14:09:01.899Z,31.11
2022-08-26T14:11:30.289Z,31.09
2022-08-26T14:14:16.910Z,31.23
2022-08-26T14:16:58.773Z,31.27
2022-08-26T14:19:30.221Z,31.34
2022-08-26T14:22:00.882Z,30.83
2022-08-26T14:24:29.362Z,31.33
2022-08-26T14:26:58.771Z,30.48
2022-08-26T14:29:26.577Z,30.84
2022-08-26T14:31:56.924Z,31.06
2022-08-26T14:34:26.011Z,31.08
2022-08-26T14:36:55.819Z,31.16
2022-08-26T14:39:23.987Z,31.23
2022-08-26T14:41:55.411Z,31.35
2022-08-26T14:44:31.528Z,31.14
2022-08-26T14:47:01.835Z,31.26
2022-08-26T14:49:31.566Z,31.16
2022-08-26T14:51:59.862Z,31.33
2022-08-26T14:54:29.582Z,31.32
2022-08-26T14:57:07.467Z,31.29
2022-08-26T14:59:49.941Z,31.30
2022-08-26T15:02:32.412Z,31.32
2022-08-26T15:05:02.923Z,31.32
2022-08-26T15:07:31.260Z,31.34
2022-08-26T15:09:59.161Z,31.33
2022-08-26T15:12:27.883Z,31.12
2022-08-26T15:14:55.748Z,31.31
2022-08-26T15:17:23.683Z,30.76
2022-08-26T15:19:51.730Z,31.26
2022-08-26T15:22:19.969Z,31.17
2022-08-26T15:24:47.888Z,31.26
2022-08-26T15:27:21.417Z,30.95
2022-08-26T15:29:49.166Z,30.71
2022-08-26T15:32:16.871Z,30.85
2022-08-26T15:34:44.943Z,31.13
2022-08-26T15:37:13.951Z,31.17
2022-08-26T15:39:42.894Z,31.08
2022-08-26T15:42:11.979Z,30.48
2022-08-26T15:44:44.033Z,31.14
2022-08-26T15:47:13.147Z,31.11
2022-08-26T15:49:41.291Z,30.99
2022-08-26T15:52:09.647Z,30.63
2022-08-26T15:54:37.397Z,30.64
2022-08-26T15:57:07.180Z,31.02
2022-08-26T15:59:37.226Z,31.02
2022-08-26T16:02:05.781Z,30.64
2022-08-26T16:04:33.579Z,31.04
2022-08-26T16:07:03.938Z,31.04
2022-08-26T16:09:31.750Z,31.02
2022-08-26T16:11:59.480Z,30.76
2022-08-26T16:14:27.371Z,30.98
2022-08-26T16:16:56.492Z,30.85
2022-08-26T16:19:24.593Z,30.41
2022-08-26T16:21:52.505Z,30.92
2022-08-26T16:24:28.457Z,30.50
2022-08-26T16:26:57.835Z,30.43
2022-08-26T16:29:25.705Z,30.68
2022-08-26T16:31:54.796Z,30.31
2022-08-26T16:34:23.004Z,30.53
2022-08-26T16:36:50.792Z,30.84
2022-08-26T16:39:19.723Z,30.64
2022-08-26T16:41:47.496Z,30.39
2022-08-26T16:44:16.345Z,30.23
2022-08-26T16:46:44.743Z,30.78
2022-08-26T16:49:12.705Z,30.55
2022-08-26T16:51:40.620Z,30.46
2022-08-26T16:54:09.026Z,30.75
2022-08-26T16:56:39.229Z,30.73
2022-08-26T16:59:11.606Z,30.73
2022-08-26T17:01:39.993Z,30.35
2022-08-26T17:04:07.846Z,30.55
2022-08-26T17:06:35.656Z,30.62
2022-08-26T17:09:06.931Z,30.72
2022-08-26T17:11:35.684Z,30.71
2022-08-26T17:14:04.337Z,30.70
2022-08-26T17:16:32.371Z,30.70
2022-08-26T17:19:00.603Z,30.13
2022-08-26T17:21:29.162Z,30.68
2022-08-26T17:23:57.018Z,30.57
2022-08-26T17:26:24.906Z,30.59
2022-08-26T17:28:53.042Z,30.48
2022-08-26T17:31:22.154Z,30.63
2022-08-26T17:33:53.520Z,30.63
2022-08-26T17:36:27.803Z,30.64
2022-08-26T17:38:57.871Z,30.28
2022-08-26T17:41:26.474Z,30.62
2022-08-26T17:43:54.636Z,30.63
2022-08-26T17:46:22.698Z,30.07
2022-08-26T17:48:50.613Z,30.32
2022-08-26T17:51:19.573Z,30.61
2022-08-26T17:53:48.152Z,30.61
2022-08-26T17:56:18.806Z,30.31
2022-08-26T17:58:51.025Z,30.09
2022-08-26T18:01:20.828Z,30.32
2022-08-26T18:03:49.812Z,30.44
2022-08-26T18:06:18.364Z,30.55
2022-08-26T18:08:46.468Z,30.08
2022-08-26T18:11:17.640Z,30.45
2022-08-26T18:13:47.597Z,30.43
2022-08-26T18:16:16.971Z,29.57
2022-08-26T18:18:45.329Z,30.52
2022-08-26T18:21:19.719Z,30.53
2022-08-26T18:23:48.568Z,30.45
2022-08-26T18:26:28.775Z,30.58
2022-08-26T18:28:57.302Z,30.51
2022-08-26T18:31:26.145Z,30.57
2022-08-26T18:33:54.731Z,30.68
2022-08-26T18:36:30.566Z,30.60
2022-08-26T18:38:58.873Z,30.45
2022-08-26T18:41:28.872Z,30.62
2022-08-26T18:43:57.108Z,30.50
2022-08-26T18:46:27.404Z,30.57
2022-08-26T18:48:56.962Z,30.12
2022-08-26T18:51:29.861Z,30.51
2022-08-26T18:53:59.525Z,30.41
2022-08-26T18:56:28.128Z,30.28
2022-08-26T18:58:56.018Z,30.20
2022-08-26T19:01:27.367Z,29.95
2022-08-26T19:03:57.488Z,30.09
2022-08-26T19:06:26.426Z,30.42
2022-08-26T19:08:54.870Z,30.12
2022-08-26T19:11:32.668Z,30.33
2022-08-26T19:14:09.137Z,30.42
2022-08-26T19:16:37.728Z,30.06
2022-08-26T19:19:05.698Z,29.91
2022-08-26T19:21:35.949Z,30.42
2022-08-26T19:24:06.643Z,30.13
2022-08-26T19:26:35.052Z,30.43
2022-08-26T19:29:02.836Z,30.14
2022-08-26T19:31:31.401Z,30.42
2022-08-26T19:33:59.616Z,30.30
2022-08-26T19:36:28.769Z,30.43
2022-08-26T19:38:57.085Z,30.42
2022-08-26T19:41:36.537Z,30.42
2022-08-26T19:44:37.596Z,30.34
2022-08-26T19:47:07.735Z,30.40
2022-08-26T19:49:35.444Z,30.18
2022-08-26T19:52:04.490Z,30.36
2022-08-26T19:54:32.110Z,29.97
2022-08-26T19:56:59.889Z,30.25
2022-08-26T19:59:27.628Z,30.34
2022-08-26T20:02:01.469Z,30.32
2022-08-26T20:04:31.214Z,30.32
2022-08-26T20:07:00.792Z,30.32
2022-08-26T20:09:30.560Z,30.33
2022-08-26T20:11:59.277Z,30.25
2022-08-26T20:14:27.962Z,30.26
2022-08-26T20:16:55.864Z,30.27
2022-08-26T20:19:42.067Z,29.89
2022-08-26T20:22:10.566Z,30.34
2022-08-26T20:24:38.897Z,30.43
2022-08-26T20:27:08.116Z,30.05
2022-08-26T20:29:37.592Z,30.38
2022-08-26T20:32:07.188Z,30.47
2022-08-26T20:34:36.087Z,30.48
2022-08-26T20:37:04.454Z,30.34
2022-08-26T20:39:32.340Z,30.46
2022-08-26T20:42:00.134Z,30.47
2022-08-26T20:44:27.846Z,30.21
2022-08-26T20:46:56.746Z,30.47
2022-08-26T20:49:24.419Z,30.35
2022-08-26T20:51:52.756Z,30.48
2022-08-26T20:54:28.218Z,30.04
2022-08-26T20:56:58.388Z,30.45
2022-08-26T20:59:26.483Z,30.04
2022-08-26T21:01:54.403Z,29.83
2022-08-26T21:04:25.792Z,30.33
2022-08-26T21:06:54.622Z,30.40
2022-08-26T21:09:25.171Z,29.39
2022-08-26T21:11:53.883Z,30.36
2022-08-26T21:14:25.889Z,30.02
2022-08-26T21:16:54.174Z,30.34
2022-08-26T21:19:22.260Z,29.85
2022-08-26T21:21:49.984Z,30.06
2022-08-26T21:24:17.837Z,29.79
2022-08-26T21:26:47.011Z,30.12
2022-08-26T21:29:15.251Z,29.64
2022-08-26T21:31:46.557Z,30.14
2022-08-26T21:34:18.152Z,30.26
2022-08-26T21:36:47.537Z,30.13
2022-08-26T21:39:16.114Z,30.08
2022-08-26T21:41:45.186Z,30.04
2022-08-26T21:44:14.735Z,29.78
2022-08-26T21:46:44.053Z,30.25
2022-08-26T21:49:16.036Z,29.94
2022-08-26T21:51:46.410Z,30.25
2022-08-26T21:54:15.473Z,30.13
2022-08-26T21:56:46.863Z,29.76
2022-08-26T21:59:19.311Z,30.19
2022-08-26T22:01:48.038Z,30.18
2022-08-26T22:04:16.734Z,30.07
2022-08-26T22:06:47.336Z,29.63
2022-08-26T22:09:18.133Z,29.85
2022-08-26T22:11:47.457Z,30.14
2022-08-26T22:14:16.510Z,29.37
2022-08-26T22:16:50.299Z,30.12
2022-08-26T22:19:20.704Z,30.10
2022-08-26T22:21:54.447Z,30.11
2022-08-26T22:24:24.467Z,29.97
2022-08-26T22:26:53.199Z,29.73
2022-08-26T22:29:21.822Z,30.10
2022-08-26T22:31:49.451Z,29.80
2022-08-26T22:34:17.489Z,29.71
2022-08-26T22:36:47.793Z,30.09
2022-08-26T22:39:18.873Z,30.06
2022-08-26T22:41:48.837Z,29.87
2022-08-26T22:44:18.112Z,30.10
2022-08-26T22:46:46.944Z,29.57
2022-08-26T22:49:18.864Z,30.11
2022-08-26T22:51:47.614Z,29.50
2022-08-26T22:54:16.651Z,30.09
2022-08-26T22:56:45.587Z,29.47
2022-08-26T22:59:13.924Z,30.07
2022-08-26T23:01:43.359Z,30.07
2022-08-26T23:04:11.759Z,29.89
2022-08-26T23:06:43.301Z,30.08
2022-08-26T23:09:18.518Z,30.08
2022-08-26T23:11:47.897Z,29.67
2022-08-26T23:14:17.781Z,30.07
2022-08-26T23:16:45.944Z,29.51
2022-08-26T23:19:15.464Z,30.04
2022-08-26T23:21:43.350Z,30.05
2022-08-26T23:24:12.234Z,30.04
2022-08-26T23:26:42.102Z,29.73
2022-08-26T23:29:13.502Z,29.71
2022-08-26T23:31:42.791Z,30.02
2022-08-26T23:34:29.944Z,30.01
2022-08-26T23:37:01.711Z,29.64
2022-08-26T23:39:32.581Z,29.64
2022-08-26T23:42:01.969Z,29.99
2022-08-26T23:44:31.712Z,29.78
2022-08-26T23:46:59.878Z,29.88
2022-08-26T23:49:28.742Z,30.00
2022-08-26T23:52:15.993Z,29.76
2022-08-26T23:54:44.804Z,29.62
2022-08-26T23:57:12.461Z,29.97
2022-08-26T23:59:40.656Z,29.98
